createdAt,value
2023-04-27T00:00:15.319Z,78.20
2023-04-27T00:02:43.469Z,78.60
2023-04-27T00:05:13.308Z,79.30
2023-04-27T00:07:41.610Z,80.00
2023-04-27T00:10:10.726Z,80.50
2023-04-27T00:12:41.949Z,80.70
2023-04-27T00:15:11.870Z,81.10
2023-04-27T00:17:39.798Z,81.50
2023-04-27T00:20:11.893Z,81.50
2023-04-27T00:22:39.907Z,81.70
2023-04-27T00:25:08.567Z,81.40
2023-04-27T00:27:36.514Z,82.00
2023-04-27T00:30:06.929Z,81.60
2023-04-27T00:32:34.906Z,82.00
2023-04-27T00:35:02.986Z,82.20
2023-04-27T00:37:30.907Z,81.80
2023-04-27T00:39:58.855Z,82.00
2023-04-27T00:42:26.846Z,82.20
2023-04-27T00:44:54.728Z,82.30
2023-04-27T00:47:24.457Z,82.60
2023-04-27T00:49:52.602Z,82.00
2023-04-27T00:52:21.000Z,81.70
2023-04-27T00:54:51.413Z,81.90
2023-04-27T00:57:23.171Z,82.00
2023-04-27T00:59:51.274Z,82.20
2023-04-27T01:02:19.444Z,82.10
2023-04-27T01:04:50.534Z,81.50
2023-04-27T01:07:18.468Z,81.50
2023-04-27T01:09:46.654Z,81.70
2023-04-27T01:12:14.703Z,81.30
2023-04-27T01:14:42.633Z,81.30
2023-04-27T01:17:11.035Z,82.10
2023-04-27T01:19:40.334Z,83.00
2023-04-27T01:22:09.683Z,83.30
2023-04-27T01:24:38.979Z,82.30
2023-04-27T01:27:06.947Z,81.60
2023-04-27T01:29:34.949Z,82.00
2023-04-27T01:32:02.879Z,82.20
2023-04-27T01:34:30.846Z,81.90
2023-04-27T01:36:58.766Z,82.00
2023-04-27T01:39:27.037Z,82.40
2023-04-27T01:41:58.399Z,82.70
2023-04-27T01:44:26.609Z,83.00
2023-04-27T01:46:54.693Z,82.90
2023-04-27T01:49:22.806Z,83.20
2023-04-27T01:51:51.492Z,83.40
2023-04-27T01:54:19.431Z,83.40
2023-04-27T01:56:47.333Z,83.50
2023-04-27T01:59:16.690Z,82.10
2023-04-27T02:01:44.638Z,82.40
2023-04-27T02:04:12.801Z,82.80
2023-04-27T02:06:41.290Z,83.00
2023-04-27T02:09:09.448Z,83.30
2023-04-27T02:11:37.373Z,83.40
2023-04-27T02:14:05.368Z,83.40
2023-04-27T02:16:34.725Z,83.90
2023-04-27T02:19:03.153Z,83.60
2023-04-27T02:21:32.762Z,83.70
2023-04-27T02:24:02.022Z,83.80
2023-04-27T02:26:30.189Z,83.80
2023-04-27T02:28:58.157Z,83.00
2023-04-27T02:31:27.181Z,83.40
2023-04-27T02:33:56.560Z,83.90
2023-04-27T02:36:24.592Z,84.20
2023-04-27T02:38:52.609Z,84.70
2023-04-27T02:41:20.926Z,85.10
2023-04-27T02:43:48.904Z,85.20
2023-04-27T02:46:17.055Z,85.50
2023-04-27T02:48:45.163Z,85.30
2023-04-27T02:51:14.478Z,85.50
2023-04-27T02:53:42.477Z,85.60
2023-04-27T02:56:10.746Z,86.10
2023-04-27T02:58:55.847Z,86.20
2023-04-27T03:01:25.201Z,86.00
2023-04-27T03:03:53.432Z,85.90
2023-04-27T03:06:23.111Z,85.80
2023-04-27T03:08:51.232Z,86.80
2023-04-27T03:11:19.216Z,87.70
2023-04-27T03:13:47.198Z,87.50
2023-04-27T03:16:15.236Z,88.10
2023-04-27T03:18:43.184Z,89.00
2023-04-27T03:21:12.164Z,88.10
2023-04-27T03:23:41.602Z,88.20
2023-04-27T03:26:10.685Z,88.60
2023-04-27T03:28:39.591Z,88.80
2023-04-27T03:31:08.447Z,89.40
2023-04-27T03:33:37.487Z,90.00
2023-04-27T03:36:06.616Z,90.60
2023-04-27T03:38:35.793Z,91.00
2023-04-27T03:41:05.306Z,91.20
2023-04-27T03:43:33.252Z,91.40
2023-04-27T03:46:01.366Z,91.40
2023-04-27T03:48:29.795Z,91.50
2023-04-27T03:50:57.866Z,91.70
2023-04-27T03:53:25.948Z,91.70
2023-04-27T03:55:53.952Z,91.90
2023-04-27T03:58:23.308Z,92.20
2023-04-27T04:00:51.346Z,92.50
2023-04-27T04:03:19.669Z,92.70
2023-04-27T04:05:48.020Z,93.20
2023-04-27T04:08:16.207Z,93.40
2023-04-27T04:10:44.285Z,93.70
2023-04-27T04:13:12.293Z,93.90
2023-04-27T04:15:41.690Z,94.40
2023-04-27T04:18:09.803Z,94.70
2023-04-27T04:20:38.150Z,95.00
2023-04-27T04:23:06.329Z,95.20
2023-04-27T04:25:34.301Z,95.10
2023-04-27T04:28:02.333Z,94.60
2023-04-27T04:30:30.900Z,94.30
2023-04-27T04:33:00.385Z,94.10
2023-04-27T04:35:28.488Z,94.40
2023-04-27T04:37:56.855Z,94.30
2023-04-27T04:40:25.465Z,94.50
2023-04-27T04:42:53.397Z,94.60
2023-04-27T04:45:21.598Z,94.70
2023-04-27T04:47:50.827Z,94.60
2023-04-27T04:50:20.507Z,94.60
2023-04-27T04:52:50.345Z,94.70
2023-04-27T04:55:18.994Z,94.70
2023-04-27T04:57:55.725Z,94.80
2023-04-27T05:00:23.852Z,95.00
2023-04-27T05:02:52.052Z,95.00
2023-04-27T05:05:21.940Z,95.00
2023-04-27T05:07:50.328Z,94.70
2023-04-27T05:10:21.131Z,94.60
2023-04-27T05:12:49.809Z,94.40
2023-04-27T05:15:18.036Z,94.40
2023-04-27T05:17:46.399Z,94.00
2023-04-27T05:20:15.992Z,93.90
2023-04-27T05:22:45.582Z,94.10
2023-04-27T05:25:17.320Z,93.70
2023-04-27T05:27:46.032Z,93.40
2023-04-27T05:30:17.827Z,92.70
2023-04-27T05:32:45.787Z,91.90
2023-04-27T05:35:14.019Z,91.80
2023-04-27T05:37:42.780Z,91.00
2023-04-27T05:40:13.340Z,90.20
2023-04-27T05:42:42.255Z,90.00
2023-04-27T05:45:11.448Z,89.30
2023-04-27T05:47:39.787Z,88.70
2023-04-27T05:50:08.678Z,86.80
2023-04-27T05:52:38.224Z,87.40
2023-04-27T05:55:07.710Z,87.50
2023-04-27T05:57:37.013Z,86.00
2023-04-27T06:00:10.654Z,85.30
2023-04-27T06:02:39.414Z,84.90
2023-04-27T06:05:13.183Z,84.20
2023-04-27T06:07:43.936Z,84.30
2023-04-27T06:10:12.669Z,83.30
2023-04-27T06:12:44.536Z,82.60
2023-04-27T06:15:14.536Z,82.30
2023-04-27T06:17:43.971Z,81.30
2023-04-27T06:20:13.901Z,80.70
2023-04-27T06:22:41.916Z,79.50
2023-04-27T06:25:16.258Z,77.30
2023-04-27T06:27:45.707Z,75.10
2023-04-27T06:30:14.275Z,72.40
2023-04-27T06:32:42.511Z,70.50
2023-04-27T06:35:11.120Z,69.40
2023-04-27T06:37:39.349Z,67.50
2023-04-27T06:40:08.649Z,65.00
2023-04-27T06:42:36.742Z,63.20
2023-04-27T06:45:07.368Z,61.20
2023-04-27T06:47:35.619Z,60.90
2023-04-27T06:50:04.403Z,61.50
2023-04-27T06:52:33.926Z,61.60
2023-04-27T06:55:02.072Z,62.50
2023-04-27T06:57:30.044Z,61.90
2023-04-27T06:59:58.032Z,61.70
2023-04-27T07:02:27.659Z,63.00
2023-04-27T07:04:55.793Z,62.60
2023-04-27T07:07:23.792Z,62.60
2023-04-27T07:09:51.924Z,63.30
2023-04-27T07:12:20.040Z,63.80
2023-04-27T07:14:50.746Z,64.20
2023-04-27T07:17:18.783Z,63.90
2023-04-27T07:19:48.044Z,62.60
2023-04-27T07:22:16.223Z,61.10
2023-04-27T07:24:44.169Z,60.50
2023-04-27T07:27:12.077Z,60.20
2023-04-27T07:29:40.055Z,59.40
2023-04-27T07:32:09.198Z,58.50
2023-04-27T07:34:51.907Z,57.80
2023-04-27T07:37:22.699Z,56.70
2023-04-27T07:39:51.992Z,56.30
2023-04-27T07:42:22.342Z,55.20
2023-04-27T07:44:51.253Z,53.30
2023-04-27T07:47:19.774Z,52.70
2023-04-27T07:49:48.259Z,51.70
2023-04-27T07:52:16.537Z,51.50
2023-04-27T07:54:45.810Z,49.30
2023-04-27T07:57:13.715Z,48.40
2023-04-27T07:59:41.872Z,48.00
2023-04-27T08:02:19.093Z,46.50
2023-04-27T08:04:48.778Z,45.00
2023-04-27T08:07:18.198Z,44.90
2023-04-27T08:09:47.689Z,44.70
2023-04-27T08:12:15.975Z,43.50
2023-04-27T08:14:44.250Z,43.20
2023-04-27T08:17:12.585Z,42.10
2023-04-27T08:19:42.167Z,41.30
2023-04-27T08:22:10.235Z,41.30
2023-04-27T08:24:38.271Z,39.00
2023-04-27T08:27:09.442Z,38.00
2023-04-27T08:33:31.652Z,33.20
2023-04-27T08:46:31.611Z,31.10
2023-04-27T08:52:12.256Z,28.60
2023-04-27T08:54:40.218Z,28.20
2023-04-27T08:57:34.259Z,26.80
2023-04-27T09:00:07.397Z,26.30
2023-04-27T09:02:46.443Z,25.50
2023-04-27T09:05:18.383Z,25.00
2023-04-27T09:08:01.465Z,25.10
2023-04-27T09:10:44.065Z,24.70
2023-04-27T09:13:12.281Z,24.10
2023-04-27T09:15:46.288Z,23.20
2023-04-27T09:18:24.331Z,23.30
2023-04-27T09:20:53.393Z,23.50
2023-04-27T09:23:28.646Z,23.30
2023-04-27T09:25:57.279Z,23.40
2023-04-27T09:28:31.954Z,22.80
2023-04-27T09:31:01.535Z,22.50
2023-04-27T09:33:32.820Z,22.60
2023-04-27T09:36:03.118Z,22.30
2023-04-27T09:38:32.007Z,22.50
2023-04-27T09:41:01.210Z,23.10
2023-04-27T09:43:31.703Z,22.90
2023-04-27T09:46:00.021Z,22.20
2023-04-27T09:48:28.142Z,22.20
2023-04-27T09:50:57.611Z,22.10
2023-04-27T09:53:31.974Z,21.90
2023-04-27T09:56:17.425Z,21.70
2023-04-27T09:59:13.353Z,21.90
2023-04-27T10:01:47.635Z,22.50
2023-04-27T10:04:30.688Z,22.50
2023-04-27T10:07:04.657Z,23.30
2023-04-27T10:09:37.733Z,23.60
2023-04-27T10:12:19.782Z,24.20
2023-04-27T10:14:55.435Z,24.40
2023-04-27T10:17:30.463Z,24.70
2023-04-27T10:20:00.142Z,24.80
2023-04-27T10:22:42.380Z,24.40
2023-04-27T10:25:19.410Z,25.00
2023-04-27T10:27:52.350Z,25.00
2023-04-27T10:30:27.446Z,24.80
2023-04-27T10:32:58.233Z,25.50
2023-04-27T10:35:38.396Z,25.20
2023-04-27T10:40:57.665Z,25.60
2023-04-27T10:43:27.932Z,25.20
2023-04-27T10:46:00.375Z,25.60
2023-04-27T10:48:31.062Z,25.80
2023-04-27T10:50:59.462Z,26.50
2023-04-27T10:53:28.268Z,26.80
2023-04-27T10:55:57.923Z,25.90
2023-04-27T10:58:34.660Z,25.50
2023-04-27T11:01:13.532Z,26.00
2023-04-27T11:03:41.753Z,26.10
2023-04-27T11:06:10.318Z,25.20
2023-04-27T11:08:45.500Z,25.90
2023-04-27T11:11:17.367Z,25.70
2023-04-27T11:13:46.524Z,26.10
2023-04-27T11:16:14.755Z,26.10
2023-04-27T11:18:43.163Z,26.60
2023-04-27T11:21:13.373Z,26.10
2023-04-27T11:23:42.796Z,26.60
2023-04-27T11:26:11.967Z,27.30
2023-04-27T11:28:42.131Z,28.00
2023-04-27T11:31:11.825Z,27.70
2023-04-27T11:33:41.088Z,27.90
2023-04-27T11:36:24.517Z,28.30
2023-04-27T11:38:58.270Z,28.40
2023-04-27T11:41:34.619Z,28.40
2023-04-27T11:44:08.502Z,29.20
2023-04-27T11:46:37.949Z,29.50
2023-04-27T11:49:09.257Z,29.90
2023-04-27T11:51:45.384Z,31.20
2023-04-27T11:54:14.219Z,31.10
2023-04-27T11:56:43.783Z,30.40
2023-04-27T11:59:21.862Z,30.20
2023-04-27T12:01:49.927Z,31.10
2023-04-27T12:04:18.747Z,32.20
2023-04-27T12:06:47.458Z,33.10
2023-04-27T12:09:17.616Z,33.10
2023-04-27T12:11:46.820Z,33.00
2023-04-27T12:14:15.421Z,33.00
2023-04-27T12:16:45.569Z,33.20
2023-04-27T12:19:16.671Z,32.60
2023-04-27T12:21:45.556Z,32.90
2023-04-27T12:24:15.677Z,32.50
2023-04-27T12:26:44.200Z,33.50
2023-04-27T12:29:12.549Z,34.00
2023-04-27T12:31:40.952Z,34.40
2023-04-27T12:34:11.046Z,34.90
2023-04-27T12:36:39.369Z,35.50
2023-04-27T12:39:16.623Z,35.30
2023-04-27T12:41:45.800Z,35.60
2023-04-27T12:44:15.333Z,35.50
2023-04-27T12:46:45.104Z,36.20
2023-04-27T12:49:15.316Z,36.30
2023-04-27T12:51:47.495Z,36.00
2023-04-27T12:54:15.873Z,35.40
2023-04-27T12:56:44.231Z,36.10
2023-04-27T12:59:12.206Z,35.50
2023-04-27T13:02:22.138Z,36.90
2023-04-27T13:04:51.793Z,37.40
2023-04-27T13:07:19.975Z,37.30
2023-04-27T13:09:48.067Z,38.30
2023-04-27T13:12:16.588Z,37.90
2023-04-27T13:14:52.550Z,37.90
2023-04-27T13:17:21.124Z,37.50
2023-04-27T13:19:49.469Z,37.30
2023-04-27T13:22:19.261Z,37.50
2023-04-27T13:24:47.559Z,37.80
2023-04-27T13:27:18.318Z,37.70
2023-04-27T13:29:49.789Z,37.80
2023-04-27T13:32:17.945Z,38.20
2023-04-27T13:34:46.120Z,37.90
2023-04-27T13:37:14.083Z,37.80
2023-04-27T13:39:43.596Z,37.80
2023-04-27T13:42:11.569Z,37.40
2023-04-27T13:44:39.480Z,37.40
2023-04-27T13:47:08.181Z,37.20
2023-04-27T13:49:37.247Z,37.50
2023-04-27T13:52:07.165Z,37.40
2023-04-27T13:54:37.358Z,37.50
2023-04-27T13:57:09.967Z,37.60
2023-04-27T13:59:39.387Z,38.00
2023-04-27T14:02:08.562Z,38.40
2023-04-27T14:04:40.222Z,38.50
2023-04-27T14:07:08.212Z,39.20
2023-04-27T14:09:36.312Z,39.00
2023-04-27T14:12:09.312Z,38.40
2023-04-27T14:14:40.566Z,38.60
2023-04-27T14:17:08.711Z,38.60
2023-04-27T14:19:37.295Z,38.50
2023-04-27T14:22:06.411Z,38.40
2023-04-27T14:24:34.839Z,38.50
2023-04-27T14:27:02.913Z,38.30
2023-04-27T14:29:32.277Z,39.30
2023-04-27T14:32:00.942Z,38.60
2023-04-27T14:34:29.031Z,38.30
2023-04-27T14:36:57.410Z,38.20
2023-04-27T14:39:27.459Z,38.20
2023-04-27T14:41:55.801Z,38.00
2023-04-27T14:44:25.951Z,37.90
2023-04-27T14:46:55.408Z,37.40
2023-04-27T14:49:23.705Z,38.20
2023-04-27T14:51:52.895Z,38.20
2023-04-27T14:54:23.277Z,38.90
2023-04-27T14:56:51.270Z,39.50
2023-04-27T14:59:22.372Z,40.10
2023-04-27T15:01:51.333Z,40.50
2023-04-27T15:04:23.720Z,40.40
2023-04-27T15:06:59.346Z,40.50
2023-04-27T15:09:29.342Z,41.30
2023-04-27T15:11:59.436Z,42.10
2023-04-27T15:14:40.306Z,40.70
2023-04-27T15:17:09.432Z,40.50
2023-04-27T15:19:42.279Z,41.00
2023-04-27T15:22:23.791Z,41.10
2023-04-27T15:24:56.373Z,41.70
2023-04-27T15:27:24.643Z,41.40
2023-04-27T15:29:56.408Z,41.70
2023-04-27T15:32:29.822Z,41.80
2023-04-27T15:35:00.538Z,41.20
2023-04-27T15:37:29.961Z,41.40
2023-04-27T15:39:58.126Z,41.50
2023-04-27T15:42:27.008Z,41.20
2023-04-27T15:44:55.078Z,41.40
2023-04-27T15:47:23.876Z,41.80
2023-04-27T15:49:57.620Z,42.50
2023-04-27T15:52:31.048Z,42.30
2023-04-27T15:54:59.466Z,42.70
2023-04-27T15:57:28.025Z,42.70
2023-04-27T15:59:56.224Z,42.90
2023-04-27T16:02:24.638Z,43.20
2023-04-27T16:04:56.024Z,43.60
2023-04-27T16:07:32.549Z,43.20
2023-04-27T16:10:00.811Z,44.00
2023-04-27T16:12:29.248Z,44.40
2023-04-27T16:14:57.947Z,43.60
2023-04-27T16:17:25.947Z,43.40
2023-04-27T16:19:53.919Z,43.10
2023-04-27T16:22:22.143Z,43.20
2023-04-27T16:24:51.553Z,43.40
2023-04-27T16:27:20.647Z,43.70
2023-04-27T16:29:48.590Z,43.80
2023-04-27T16:32:17.486Z,44.00
2023-04-27T16:34:45.934Z,44.10
2023-04-27T16:37:14.202Z,44.00
2023-04-27T16:39:42.107Z,44.30
2023-04-27T16:42:12.984Z,44.70
2023-04-27T16:44:40.902Z,45.10
2023-04-27T16:47:08.751Z,44.80
2023-04-27T16:49:37.829Z,44.60
2023-04-27T16:52:06.060Z,45.00
2023-04-27T16:54:34.027Z,45.20
2023-04-27T16:57:01.973Z,44.90
2023-04-27T16:59:32.466Z,44.70
2023-04-27T17:02:09.382Z,44.20
2023-04-27T17:04:44.812Z,44.00
2023-04-27T17:07:12.843Z,44.30
2023-04-27T17:09:40.882Z,44.30
2023-04-27T17:12:12.246Z,44.80
2023-04-27T17:14:41.730Z,44.90
2023-04-27T17:17:09.588Z,44.70
2023-04-27T17:19:37.556Z,44.80
2023-04-27T17:22:07.289Z,45.10
2023-04-27T17:24:35.172Z,44.90
2023-04-27T17:27:04.165Z,44.70
2023-04-27T17:29:32.253Z,44.90
2023-04-27T17:32:01.790Z,45.20
2023-04-27T17:34:29.682Z,45.50
2023-04-27T17:36:58.284Z,45.20
2023-04-27T17:39:26.330Z,45.40
2023-04-27T17:41:54.370Z,45.50
2023-04-27T17:44:22.341Z,45.10
2023-04-27T17:46:52.232Z,45.50
2023-04-27T17:49:21.813Z,45.90
2023-04-27T17:51:49.855Z,45.70
2023-04-27T17:54:17.720Z,45.80
2023-04-27T17:56:45.569Z,45.70
2023-04-27T17:59:13.653Z,46.00
2023-04-27T18:01:41.605Z,46.60
2023-04-27T18:04:10.170Z,46.80
2023-04-27T18:06:39.483Z,47.20
2023-04-27T18:09:07.604Z,47.40
2023-04-27T18:11:36.256Z,47.60
2023-04-27T18:14:04.253Z,48.00
2023-04-27T18:16:32.689Z,48.00
2023-04-27T18:19:00.680Z,48.40
2023-04-27T18:21:28.540Z,48.60
2023-04-27T18:23:58.076Z,48.70
2023-04-27T18:26:26.005Z,49.20
2023-04-27T18:28:54.608Z,49.80
2023-04-27T18:31:24.547Z,49.80
2023-04-27T18:33:52.581Z,49.90
2023-04-27T18:36:20.954Z,50.00
2023-04-27T18:38:49.166Z,50.30
2023-04-27T18:41:18.513Z,50.10
2023-04-27T18:43:46.496Z,49.60
2023-04-27T18:46:14.442Z,49.60
2023-04-27T18:48:42.517Z,49.70
2023-04-27T18:51:10.487Z,49.90
2023-04-27T18:53:38.380Z,50.00
2023-04-27T18:56:07.183Z,49.90
2023-04-27T18:58:38.152Z,50.10
2023-04-27T19:01:07.064Z,50.20
2023-04-27T19:03:35.308Z,50.60
2023-04-27T19:06:03.339Z,51.00
2023-04-27T19:08:31.314Z,51.10
2023-04-27T19:11:00.345Z,51.00
2023-04-27T19:13:28.390Z,51.40
2023-04-27T19:15:58.542Z,51.50
2023-04-27T19:18:26.888Z,51.60
2023-04-27T19:20:54.893Z,51.90
2023-04-27T19:23:22.764Z,52.10
2023-04-27T19:25:51.827Z,52.20
2023-04-27T19:28:23.422Z,52.20
2023-04-27T19:30:52.409Z,52.30
2023-04-27T19:33:22.666Z,52.70
2023-04-27T19:35:51.627Z,52.60
2023-04-27T19:38:19.599Z,52.90
2023-04-27T19:40:48.216Z,53.20
2023-04-27T19:43:16.527Z,53.00
2023-04-27T19:45:44.695Z,53.40
2023-04-27T19:48:12.769Z,53.60
2023-04-27T19:50:43.699Z,53.70
2023-04-27T19:53:11.904Z,54.00
2023-04-27T19:55:40.705Z,54.10
2023-04-27T19:58:08.753Z,54.60
2023-04-27T20:00:36.707Z,55.20
2023-04-27T20:03:06.668Z,54.90
2023-04-27T20:05:35.933Z,54.90
2023-04-27T20:08:06.119Z,55.30
2023-04-27T20:10:34.246Z,55.70
2023-04-27T20:13:02.113Z,55.80
2023-04-27T20:15:30.115Z,56.10
2023-04-27T20:17:58.104Z,56.30
2023-04-27T20:20:26.089Z,56.60
2023-04-27T20:22:54.009Z,57.10
2023-04-27T20:25:25.877Z,57.30
2023-04-27T20:27:53.872Z,57.50
2023-04-27T20:30:21.910Z,57.70
2023-04-27T20:32:52.665Z,57.90
2023-04-27T20:35:20.930Z,58.00
2023-04-27T20:37:49.835Z,58.20
2023-04-27T20:40:21.470Z,58.50
2023-04-27T20:42:51.796Z,58.50
2023-04-27T20:45:19.970Z,58.90
2023-04-27T20:47:47.957Z,59.00
2023-04-27T20:50:15.957Z,59.20
2023-04-27T20:52:43.848Z,59.60
2023-04-27T20:55:11.806Z,59.70
2023-04-27T20:57:39.687Z,60.00
2023-04-27T21:00:10.536Z,60.30
2023-04-27T21:02:38.612Z,60.60
2023-04-27T21:05:06.682Z,60.70
2023-04-27T21:07:34.619Z,61.70
2023-04-27T21:10:06.230Z,61.30
2023-04-27T21:12:34.529Z,61.60
2023-04-27T21:15:03.243Z,61.80
2023-04-27T21:17:32.551Z,62.00
2023-04-27T21:20:00.528Z,62.50
2023-04-27T21:22:28.380Z,62.70
2023-04-27T21:24:56.230Z,63.10
2023-04-27T21:27:25.103Z,63.50
2023-04-27T21:29:53.291Z,63.60
2023-04-27T21:32:21.268Z,64.00
2023-04-27T21:34:50.569Z,64.40
2023-04-27T21:37:18.477Z,64.60
2023-04-27T21:39:46.431Z,64.50
2023-04-27T21:42:15.889Z,64.60
2023-04-27T21:44:43.785Z,64.90
2023-04-27T21:47:11.781Z,65.20
2023-04-27T21:49:39.870Z,65.50
2023-04-27T21:52:10.457Z,65.50
2023-04-27T21:54:38.349Z,65.50
2023-04-27T21:57:06.257Z,65.70
2023-04-27T21:59:34.405Z,65.90
2023-04-27T22:02:06.776Z,65.90
2023-04-27T22:04:35.886Z,66.30
2023-04-27T22:07:04.107Z,66.40
2023-04-27T22:09:33.672Z,66.40
2023-04-27T22:12:02.964Z,66.50
2023-04-27T22:14:31.327Z,66.80
2023-04-27T22:17:00.908Z,67.10
2023-04-27T22:19:29.254Z,67.10
2023-04-27T22:21:57.822Z,67.00
2023-04-27T22:24:25.727Z,67.50
2023-04-27T22:26:55.013Z,67.40
2023-04-27T22:29:22.912Z,67.70
2023-04-27T22:31:52.175Z,67.80
2023-04-27T22:34:20.385Z,67.80
2023-04-27T22:36:48.396Z,67.90
2023-04-27T22:39:16.577Z,67.80
2023-04-27T22:41:45.896Z,68.10
2023-04-27T22:44:15.772Z,68.10
2023-04-27T22:46:44.284Z,68.50
2023-04-27T22:49:12.190Z,68.60
2023-04-27T22:51:40.072Z,68.60
2023-04-27T22:54:07.988Z,68.90
2023-04-27T22:56:36.082Z,68.80
2023-04-27T22:59:04.119Z,68.80
2023-04-27T23:01:33.450Z,68.90
2023-04-27T23:04:01.514Z,69.10
2023-04-27T23:06:30.355Z,69.50
2023-04-27T23:08:59.117Z,68.90
2023-04-27T23:11:28.486Z,69.00
2023-04-27T23:13:57.473Z,69.20
2023-04-27T23:16:25.747Z,69.30
2023-04-27T23:18:55.286Z,69.30
2023-04-27T23:21:23.217Z,69.50
2023-04-27T23:23:51.300Z,69.50
2023-04-27T23:26:19.223Z,69.70
2023-04-27T23:28:48.322Z,70.50
2023-04-27T23:31:16.316Z,70.40
2023-04-27T23:33:44.323Z,70.10
2023-04-27T23:36:13.533Z,70.10
2023-04-27T23:38:41.458Z,70.20
2023-04-27T23:41:09.544Z,70.60
2023-04-27T23:43:37.501Z,70.40
2023-04-27T23:46:05.799Z,70.50
2023-04-27T23:48:33.843Z,70.90
2023-04-27T23:51:02.470Z,71.10
2023-04-27T23:53:32.526Z,71.20
2023-04-27T23:56:00.492Z,71.40
2023-04-27T23:58:28.489Z,71.40
